Sand Springs, Oklahoma
Current Conditions -  °F | °C
As of 4:35 AM on Friday 24 Oct 2014 (Local Time) from KOWP Reporting Station
Scattered Clouds Scattered Clouds  
Wind Chill: 59°   Ceiling: Unl
Heat Index: 59°   Visibility: 10mi
Dew Point: 55°   Wind: 6mph
Humidity: 87%   Direction: 170°S
Pressure: 30.11"   Gusts: NA
Location:  36.14°N, 96.11°W
Report Text: KOWP 240935Z AUTO 17005KT 10SM SCT047 15/13 A3011 RMK AO2 T01520130
Loading
Personal Weather Stations






























Interactive Weather Map
Tropical Storm Tracking
New forecast layout! Learn more

10-Day Weather Forecast

Advertisements
Track Severe Weather on mobile